Cairo, IL

4:43 PM CST on December 05, 2019 (GMT -0600)
Cairo Regional

Weather History for KCIR - October, 2019

Change the Weather History Date:

Saturday, October 26, 2019

  Actual Average Record
Temperature  
Mean Temperature 54 °F -  
Max Temperature 57 °F 67 °F 85 °F (2014)
Min Temperature 51 °F 44 °F 30 °F (2005)
Degree Days  
Heating Degree Days 12    
Growing Degree Days 4 (Base 50)    
Moisture  
Dew Point 52 °F    
Average Humidity 98    
Maximum Humidity 100    
Minimum Humidity 92    
Precipitation  
Precipitation 1.18 in - - ()
Sea Level Pressure  
Sea Level Pressure 29.71 in    
Wind  
Wind Speed 9 mph ()    
Max Wind Speed 15 mph    
Max Gust Speed 24 mph    
Visibility 6.7 miles    
Events Rain    
Averages and records for this station are not official NWS values.
T = Trace of Precipitation, MM = Missing Value Source: Averaged Metar Reports

Daily Weather History Graph

Daily Weather History Graph

Search for Another Location

Airport or City:

Astronomy

Oct. 26, 2019 Rise Set
Actual Time 7:14 AM CDT 6:06 PM CDT
Civil Twilight 6:48 AM CDT 6:32 PM CDT
Nautical Twilight 6:17 AM CDT 7:03 PM CDT
Astronomical Twilight 5:47 AM CDT 7:33 PM CDT
Moon 5:14 AM CDT (10/26) 5:38 PM CDT (10/26)
Length of Visible Light 11h 44m
Length of Day
10h 51m
Waning Crescent, 3% of the Moon is Illuminated
Oct 26
Waning Crescent
Oct 27
New
Nov 4
First Quarter
Nov 12
Full
Nov 19
Last Quarter

Hourly Weather History & Observations

Time (CDT) Temp. Dew Point Humidity Pressure Visibility Wind Dir Wind Speed Gust Speed Precip Events Conditions
12:15 AM 52.0 °F 50.5 °F 95% 30.03 in 10.0 mi NNE 9.2 mph - 0.01 in Rain Rain
12:35 AM 51.8 °F 50.7 °F 96% 30.01 in 7.0 mi NNE 8.1 mph - 0.01 in   Drizzle
12:55 AM 51.8 °F 50.9 °F 97% 30.00 in 7.0 mi NNE 8.1 mph - 0.02 in Rain Rain
1:15 AM 51.8 °F 50.9 °F 97% 29.98 in 5.0 mi NNE 10.4 mph - 0.01 in Rain Rain
1:35 AM 51.8 °F 51.1 °F 97% 29.96 in 5.0 mi NNE 10.4 mph - 0.03 in Rain Rain
1:55 AM 51.6 °F 51.1 °F 98% 29.94 in 4.0 mi NNE 11.5 mph - 0.06 in Rain Rain
2:15 AM 51.4 °F 51.1 °F 99% 29.93 in 4.0 mi NNE 9.2 mph - 0.01 in Rain Heavy Rain
2:35 AM 51.4 °F 51.3 °F 99% 29.92 in 4.0 mi NNE 11.5 mph 17.3 mph 0.05 in Rain Rain
2:55 AM 51.6 °F 51.3 °F 99% 29.89 in 4.0 mi North 11.5 mph 20.7 mph 0.09 in Rain Heavy Rain
3:15 AM 51.8 °F 51.4 °F 99% 29.89 in 4.0 mi ENE 11.5 mph 21.9 mph 0.01 in Rain Heavy Rain
3:35 AM 51.8 °F 51.8 °F 100% 29.87 in 5.0 mi NNE 11.5 mph 18.4 mph 0.02 in Rain Heavy Rain
3:55 AM 52.2 °F 51.8 °F 99% 29.87 in 4.0 mi NNE 11.5 mph 17.3 mph 0.07 in Rain Heavy Rain
4:15 AM 52.2 °F 52.0 °F 99% 29.85 in 5.0 mi NNE 11.5 mph 17.3 mph 0.04 in Rain Rain
4:35 AM 52.0 °F 51.8 °F 99% 29.83 in 5.0 mi NNE 15.0 mph 18.4 mph 0.07 in Rain Rain
4:55 AM 52.2 °F 52.0 °F 99% 29.82 in 5.0 mi NNE 12.7 mph - 0.10 in Rain Rain
5:15 AM 52.2 °F 52.0 °F 99% 29.80 in 7.0 mi NNE 10.4 mph 16.1 mph 0.03 in Rain Rain
5:35 AM 52.2 °F 52.0 °F 99% 29.80 in 7.0 mi NNE 9.2 mph - 0.05 in Rain Rain
5:55 AM 52.2 °F 51.8 °F 99% 29.79 in 7.0 mi NNE 10.4 mph 16.1 mph 0.08 in Rain Rain
6:15 AM 52.2 °F 51.8 °F 99% 29.77 in 7.0 mi NNE 13.8 mph 17.3 mph 0.03 in Rain Rain
6:35 AM 52.2 °F 51.8 °F 99% 29.79 in 5.0 mi NNW 8.1 mph - 0.08 in Rain Heavy Rain
6:55 AM 52.2 °F 51.8 °F 99% 29.79 in 5.0 mi NNW 9.2 mph - 0.13 in Rain Heavy Rain
7:15 AM 52.0 °F 51.8 °F 99% 29.77 in 4.0 mi North 12.7 mph - 0.06 in Rain Heavy Rain
7:35 AM 52.0 °F 51.8 °F 99% 29.77 in 4.0 mi North 9.2 mph - 0.16 in Rain Heavy Rain
7:55 AM 52.0 °F 51.8 °F 99% 29.76 in 5.0 mi North 9.2 mph - 0.25 in Rain Rain
8:15 AM 52.0 °F 51.8 °F 99% 29.73 in 4.0 mi NNE 11.5 mph 18.4 mph 0.03 in Rain Rain
8:35 AM 52.2 °F 51.8 °F 99% 29.72 in 4.0 mi NNE 15.0 mph - 0.06 in Rain Rain
8:55 AM 52.2 °F 51.8 °F 99% 29.71 in 2.5 mi NNE 12.7 mph 19.6 mph 0.14 in Rain Heavy Rain
9:15 AM 52.2 °F 51.8 °F 99% 29.69 in 4.0 mi NNE 12.7 mph 17.3 mph 0.04 in Rain Rain
9:35 AM 52.3 °F 52.0 °F 99% 29.67 in 5.0 mi NNE 13.8 mph 19.6 mph 0.06 in Rain Rain
9:55 AM 52.5 °F 52.2 °F 99% 29.65 in 4.0 mi NNE 10.4 mph 16.1 mph 0.11 in Rain Rain
10:15 AM 52.7 °F 52.5 °F 99% 29.64 in 10.0 mi NNE 9.2 mph - N/A   Drizzle
10:35 AM 52.7 °F 52.7 °F 100% 29.61 in 7.0 mi NNE 13.8 mph - 0.02 in Rain Light Rain
10:55 AM 53.1 °F 52.9 °F 99% 29.59 in 4.0 mi NNE 15.0 mph - 0.03 in Rain Rain
11:15 AM 53.1 °F 52.9 °F 99% 29.55 in 4.0 mi NE 15.0 mph - 0.03 in Rain Heavy Rain
11:35 AM 53.2 °F 53.2 °F 100% 29.53 in 3.0 mi NE 11.5 mph - 0.06 in Rain Rain
11:55 AM 54.0 °F 54.0 °F 100% 29.51 in 7.0 mi NE 8.1 mph - 0.08 in Rain Light Rain
12:15 PM 55.0 °F 55.0 °F 100% 29.47 in 5.0 mi NE 10.4 mph - N/A   Light Drizzle
12:35 PM 56.7 °F 56.7 °F 100% 29.49 in 4.0 mi NW 4.6 mph 21.9 mph 0.01 in Rain Rain
12:55 PM 55.9 °F 55.9 °F 100% 29.47 in 10.0 mi West 3.5 mph - 0.01 in   Drizzle
1:15 PM 54.9 °F 54.7 °F 99% 29.46 in 5.0 mi West 11.5 mph - N/A   Drizzle
1:35 PM 54.1 °F 54.0 °F 99% 29.48 in 3.0 mi West 8.1 mph - N/A   Heavy Drizzle
1:55 PM 54.0 °F 54.0 °F 100% 29.48 in 3.0 mi West 6.9 mph - 0.01 in   Drizzle
2:15 PM 54.0 °F 53.8 °F 99% 29.50 in 7.0 mi WSW 9.2 mph - N/A   Drizzle
2:35 PM 54.1 °F 54.0 °F 99% 29.51 in 7.0 mi WSW 10.4 mph - N/A   Drizzle
2:55 PM 53.6 °F 52.9 °F 97% 29.56 in 10.0 mi WSW 12.7 mph 23.0 mph N/A Rain Light Rain
3:15 PM 53.6 °F 52.9 °F 97% 29.53 in 10.0 mi WNW 8.1 mph - N/A Rain Rain
3:35 PM 53.2 °F 52.3 °F 97% 29.43 in 10.0 mi North 12.7 mph 19.6 mph N/A Rain Light Rain
3:55 PM 54.7 °F 53.4 °F 96% 29.47 in 10.0 mi North 5.8 mph 9.2 mph N/A   Mostly Cloudy
4:15 PM 54.0 °F 52.7 °F 95% 29.59 in 10.0 mi SW 13.8 mph 21.9 mph N/A   Overcast
4:35 PM 54.0 °F 52.7 °F 95% 29.61 in 10.0 mi SW 9.2 mph 19.6 mph N/A   Overcast
4:55 PM 54.0 °F 52.2 °F 94% 29.62 in 10.0 mi SW 11.5 mph 21.9 mph N/A   Overcast
5:15 PM 53.8 °F 52.2 °F 94% 29.62 in 10.0 mi SW 9.2 mph 18.4 mph N/A   Overcast
5:35 PM 54.0 °F 52.2 °F 94% 29.62 in 10.0 mi West 12.7 mph 24.2 mph N/A   Overcast
5:55 PM 53.6 °F 52.7 °F 97% 29.64 in 5.0 mi WSW 10.4 mph - N/A Rain Light Rain
6:15 PM 53.6 °F 52.9 °F 97% 29.66 in 2.5 mi WSW 10.4 mph - N/A   Heavy Drizzle
6:35 PM 53.2 °F 52.9 °F 99% 29.67 in 2.5 mi WSW 8.1 mph - N/A   Heavy Drizzle
6:55 PM 53.1 °F 52.9 °F 99% 29.66 in 4.0 mi SSW 6.9 mph - N/A   Light Drizzle
7:15 PM 53.1 °F 52.9 °F 99% 29.68 in 10.0 mi SW 4.6 mph - N/A Rain Rain
7:35 PM 53.2 °F 52.9 °F 99% 29.69 in 10.0 mi SW 6.9 mph - N/A   Overcast
7:55 PM 53.4 °F 52.7 °F 97% 29.70 in 10.0 mi SW 6.9 mph - N/A   Overcast
8:15 PM 53.4 °F 52.9 °F 98% 29.70 in 10.0 mi SW 6.9 mph - N/A   Overcast
8:35 PM 53.6 °F 52.7 °F 97% 29.72 in 10.0 mi SW 6.9 mph - N/A   Overcast
8:55 PM 53.6 °F 52.9 °F 97% 29.73 in 10.0 mi SW 8.1 mph - N/A   Overcast
9:15 PM 53.6 °F 52.9 °F 97% 29.76 in 10.0 mi WSW 8.1 mph - N/A   Overcast
9:35 PM 53.8 °F 52.7 °F 96% 29.77 in 10.0 mi WSW 6.9 mph - N/A   Overcast
9:55 PM 53.6 °F 52.3 °F 95% 29.78 in 10.0 mi WSW 5.8 mph - N/A   Overcast
10:15 PM 53.6 °F 51.8 °F 94% 29.79 in 10.0 mi WSW 5.8 mph - N/A   Overcast
10:35 PM 53.2 °F 51.3 °F 93% 29.79 in 10.0 mi WSW 4.6 mph - N/A   Overcast
10:55 PM 53.1 °F 51.4 °F 94% 29.80 in 10.0 mi SW 5.8 mph - N/A   Overcast
11:35 PM 52.3 °F 50.4 °F 93% 29.82 in 10.0 mi West 4.6 mph - N/A   Overcast
11:55 PM 51.8 °F 49.6 °F 92% 29.83 in 10.0 mi West 8.1 mph - N/A   Overcast